Time;durP1;ratioP1;P1;durP2;ratioP2;P2;SDS_P1;SDS_P2;PMS_P1;PMS_P2;Temp;Humidity;BMP_temperature;BMP_pressure;BME280_temperature;BME280_humidity;BME280_pressure;Samples;Min_cycle;Max_cycle;Signal;HPM_P1;HPM_P2
2023/03/20 00:02:40;;;;;;;39.20;25.67;;;10.70;99.90;;;;;;5079672;28;20228;-65
2023/03/20 00:05:32;;;;;;;43.55;25.73;;;10.70;99.90;;;;;;5077917;28;20301;-65
2023/03/20 00:08:21;;;;;;;40.83;24.83;;;10.60;99.90;;;;;;5094790;28;20227;-66
2023/03/20 00:11:25;;;;;;;41.85;25.83;;;10.40;99.90;;;;;;5080764;28;20740;-66
2023/03/20 00:14:17;;;;;;;42.15;26.02;;;10.40;99.90;;;;;;5080894;28;20226;-65
2023/03/20 00:17:10;;;;;;;43.90;27.00;;;10.30;99.90;;;;;;5085323;28;20227;-66
2023/03/20 00:19:59;;;;;;;42.05;26.48;;;10.30;99.90;;;;;;5093580;28;20406;-68
2023/03/20 00:22:50;;;;;;;45.88;25.92;;;10.20;99.90;;;;;;5081611;28;20230;-68
2023/03/20 00:25:40;;;;;;;43.67;26.17;;;10.20;99.90;;;;;;5077706;28;20380;-65
2023/03/20 00:28:39;;;;;;;43.97;26.67;;;10.30;99.90;;;;;;5086814;28;20219;-65
2023/03/20 00:31:30;;;;;;;48.35;28.05;;;10.30;99.90;;;;;;5084648;28;20234;-65
2023/03/20 00:34:22;;;;;;;44.70;26.90;;;10.20;99.90;;;;;;5079853;28;20283;-65
2023/03/20 00:37:11;;;;;;;43.13;26.42;;;10.30;99.90;;;;;;5082486;28;20292;-67
2023/03/20 00:40:03;;;;;;;46.83;27.17;;;10.30;99.90;;;;;;5079274;28;20219;-65
2023/03/20 00:42:58;;;;;;;43.72;27.17;;;10.30;99.90;;;;;;5077872;28;20312;-66
2023/03/20 00:45:47;;;;;;;47.05;27.55;;;10.30;99.90;;;;;;5076604;28;20318;-66
2023/03/20 00:48:42;;;;;;;39.65;26.73;;;10.30;99.90;;;;;;5077299;28;20695;-64
2023/03/20 00:51:31;;;;;;;45.90;27.02;;;10.20;99.90;;;;;;5096409;27;20222;-66
2023/03/20 00:54:20;;;;;;;47.50;28.02;;;10.20;99.90;;;;;;5080803;28;20223;-65
2023/03/20 00:57:14;;;;;;;43.33;27.98;;;10.20;99.90;;;;;;5085326;28;20227;-65
2023/03/20 01:00:06;;;;;;;48.22;27.95;;;10.10;99.90;;;;;;5078597;28;20227;-66
2023/03/20 01:02:57;;;;;;;45.13;28.02;;;10.10;99.90;;;;;;5094680;28;20227;-65
2023/03/20 01:05:47;;;;;;;43.88;27.33;;;10.20;99.90;;;;;;5081116;28;20231;-69
2023/03/20 01:08:36;;;;;;;46.78;27.83;;;10.30;99.90;;;;;;5081333;28;20312;-68
2023/03/20 01:11:25;;;;;;;47.33;28.83;;;10.20;99.90;;;;;;5077166;28;20223;-69
2023/03/20 01:14:16;;;;;;;44.20;27.20;;;10.30;99.90;;;;;;5077994;28;20238;-68
2023/03/20 01:17:05;;;;;;;48.30;28.83;;;10.20;99.90;;;;;;5093730;28;20254;-66
2023/03/20 01:19:54;;;;;;;45.38;28.52;;;10.20;99.90;;;;;;5074027;28;20267;-66
2023/03/20 01:22:44;;;;;;;42.92;27.55;;;10.20;99.90;;;;;;5081553;28;20223;-67
2023/03/20 01:25:33;;;;;;;43.83;28.25;;;10.00;99.90;;;;;;5092138;27;20315;-67
2023/03/20 01:28:24;;;;;;;47.47;28.48;;;9.90;99.90;;;;;;5074311;28;20317;-68
2023/03/20 01:31:15;;;;;;;48.35;28.25;;;9.90;99.90;;;;;;5087544;28;20276;-67
2023/03/20 01:34:05;;;;;;;47.10;27.65;;;10.00;99.90;;;;;;5105039;27;20238;-67
2023/03/20 01:36:57;;;;;;;52.45;28.48;;;10.00;99.90;;;;;;5082929;28;20223;-66
2023/03/20 01:39:46;;;;;;;44.97;27.95;;;10.00;99.90;;;;;;5083680;28;20230;-66
2023/03/20 01:42:35;;;;;;;43.88;27.13;;;9.80;99.90;;;;;;5078893;28;20256;-68
2023/03/20 01:45:30;;;;;;;51.88;28.40;;;9.70;99.90;;;;;;5075678;28;21075;-67
2023/03/20 01:48:22;;;;;;;48.67;28.90;;;9.70;99.90;;;;;;5082136;28;20239;-67
2023/03/20 01:51:11;;;;;;;48.10;28.25;;;9.70;99.90;;;;;;5073134;28;20595;-67
2023/03/20 01:54:07;;;;;;;47.47;29.45;;;9.70;99.90;;;;;;5079077;28;20369;-67
2023/03/20 01:57:04;;;;;;;49.17;28.88;;;9.90;99.90;;;;;;5074554;28;20219;-67
2023/03/20 02:00:00;;;;;;;49.70;30.13;;;9.90;99.90;;;;;;5091782;28;20223;-67
2023/03/20 02:02:51;;;;;;;52.30;28.25;;;9.70;99.90;;;;;;5081234;28;20227;-67
2023/03/20 02:06:02;;;;;;;50.90;29.80;;;9.80;99.90;;;;;;5077543;28;20231;-66
2023/03/20 02:09:11;;;;;;;49.20;29.45;;;9.80;99.90;;;;;;5077536;28;20235;-67
2023/03/20 02:12:04;;;;;;;43.65;28.50;;;9.80;99.90;;;;;;5073232;28;20913;-68
2023/03/20 02:14:53;;;;;;;52.33;28.92;;;9.80;99.90;;;;;;5083022;28;20227;-66
2023/03/20 02:17:57;;;;;;;57.00;30.20;;;9.70;99.90;;;;;;5084981;28;20215;-66
2023/03/20 02:21:02;;;;;;;48.20;28.60;;;9.80;99.90;;;;;;5082062;28;20574;-66
2023/03/20 02:24:24;;;;;;;49.42;28.30;;;9.80;99.90;;;;;;5094437;28;20215;-65
2023/03/20 02:27:24;;;;;;;42.53;27.95;;;9.90;99.90;;;;;;5078823;28;20227;-66
2023/03/20 02:30:40;;;;;;;41.53;27.80;;;9.90;99.90;;;;;;5041014;28;20263;-68
2023/03/20 02:33:50;;;;;;;49.17;29.10;;;9.80;99.90;;;;;;5056973;28;20524;-68
2023/03/20 02:37:31;;;;;;;45.95;28.98;;;9.70;99.90;;;;;;5061606;28;20234;-67
2023/03/20 02:40:32;;;;;;;45.33;28.52;;;9.50;99.90;;;;;;5044944;28;20231;-65
2023/03/20 02:43:27;;;;;;;50.30;29.17;;;9.60;99.90;;;;;;5045628;28;20224;-66
2023/03/20 02:46:26;;;;;;;44.65;27.63;;;9.50;99.90;;;;;;5059832;28;21024;-66
2023/03/20 02:49:27;;;;;;;42.78;27.50;;;9.50;99.90;;;;;;5043868;28;20220;-66
2023/03/20 02:52:25;;;;;;;49.72;28.05;;;9.40;99.90;;;;;;5051189;28;20227;-67
2023/03/20 02:55:21;;;;;;;42.22;28.05;;;9.40;99.90;;;;;;5060123;28;20239;-67
2023/03/20 02:58:15;;;;;;;48.38;29.92;;;9.30;99.90;;;;;;5071086;28;20645;-66
2023/03/20 03:01:10;;;;;;;45.47;28.10;;;9.40;99.90;;;;;;5041730;28;20354;-66
2023/03/20 03:04:04;;;;;;;43.10;28.00;;;9.40;99.90;;;;;;5048309;28;20220;-66
2023/03/20 03:06:54;;;;;;;44.97;28.17;;;9.40;99.90;;;;;;5058691;28;20318;-66
2023/03/20 03:09:49;;;;;;;46.42;28.75;;;9.50;99.90;;;;;;5064620;28;20220;-66
2023/03/20 03:12:43;;;;;;;48.58;28.45;;;9.30;99.90;;;;;;5042311;28;20319;-66
2023/03/20 03:15:36;;;;;;;47.75;28.13;;;9.40;99.90;;;;;;5067778;28;20289;-68
2023/03/20 03:18:26;;;;;;;50.28;29.42;;;9.40;99.90;;;;;;5042798;28;20260;-65
2023/03/20 03:21:18;;;;;;;48.38;29.17;;;9.40;99.90;;;;;;5047854;28;20233;-65
2023/03/20 03:24:28;;;;;;;51.22;29.75;;;9.20;99.90;;;;;;5063967;28;20258;-67
2023/03/20 03:27:34;;;;;;;52.58;29.35;;;9.20;99.90;;;;;;5048548;28;20220;-66
2023/03/20 03:30:27;;;;;;;44.95;28.38;;;9.20;99.90;;;;;;5073070;28;20323;-67
2023/03/20 03:33:21;;;;;;;48.72;30.08;;;9.20;99.90;;;;;;5073271;28;20219;-66
2023/03/20 03:36:18;;;;;;;47.67;28.17;;;9.20;99.90;;;;;;5070310;28;20310;-67
2023/03/20 03:39:14;;;;;;;46.63;28.27;;;9.30;99.90;;;;;;5064632;28;20602;-66
2023/03/20 03:42:08;;;;;;;54.95;30.00;;;9.20;99.90;;;;;;5072784;28;20567;-66
2023/03/20 03:45:03;;;;;;;51.03;29.85;;;9.10;99.90;;;;;;5064398;28;20639;-66
2023/03/20 03:47:56;;;;;;;49.15;29.27;;;9.20;99.90;;;;;;5090809;28;20223;-65
2023/03/20 03:50:50;;;;;;;44.80;30.60;;;9.20;99.90;;;;;;5082136;28;20255;-67
2023/03/20 03:53:47;;;;;;;50.20;29.95;;;9.30;99.90;;;;;;5074883;28;20721;-66
2023/03/20 03:56:40;;;;;;;50.00;28.40;;;9.20;99.90;;;;;;5080910;28;20242;-64
2023/03/20 03:59:34;;;;;;;45.50;28.70;;;9.10;99.90;;;;;;5080951;28;20219;-65
2023/03/20 04:02:24;;;;;;;49.63;29.58;;;9.00;99.90;;;;;;5065459;28;20301;-66
2023/03/20 04:05:16;;;;;;;50.50;30.15;;;8.90;99.90;;;;;;5074757;28;20690;-65
2023/03/20 04:08:07;;;;;;;49.97;29.45;;;9.00;99.90;;;;;;5086156;28;21742;-67
2023/03/20 04:10:56;;;;;;;48.20;29.98;;;9.20;99.90;;;;;;5080951;28;20216;-66
2023/03/20 04:13:45;;;;;;;48.08;29.67;;;9.10;99.90;;;;;;5071518;28;20215;-67
2023/03/20 04:16:35;;;;;;;49.63;30.10;;;9.00;99.90;;;;;;5078601;28;20228;-69
2023/03/20 04:19:25;;;;;;;47.05;28.45;;;8.80;99.90;;;;;;5064253;28;20234;-68
2023/03/20 04:22:15;;;;;;;51.83;29.77;;;9.00;99.90;;;;;;5085216;28;20223;-69
2023/03/20 04:25:05;;;;;;;48.13;30.20;;;9.20;99.90;;;;;;5067495;28;20216;-67
2023/03/20 04:27:54;;;;;;;52.20;30.17;;;9.20;99.90;;;;;;5077213;28;20231;-68
2023/03/20 04:30:56;;;;;;;53.33;30.50;;;9.20;99.90;;;;;;5079151;28;20598;-67
2023/03/20 04:33:58;;;;;;;60.70;32.83;;;9.10;99.90;;;;;;5083923;28;20938;-65
2023/03/20 04:37:07;;;;;;;50.13;29.25;;;8.90;99.90;;;;;;5083894;28;20238;-66
2023/03/20 04:40:17;;;;;;;51.58;31.15;;;8.90;99.90;;;;;;5072760;28;20257;-67
2023/03/20 04:43:07;;;;;;;54.38;31.55;;;8.90;99.90;;;;;;5079285;28;20792;-67
2023/03/20 04:45:56;;;;;;;56.55;30.67;;;8.80;99.90;;;;;;5078105;28;20222;-67
2023/03/20 04:48:45;;;;;;;63.30;31.98;;;8.80;99.90;;;;;;5072237;28;20341;-67
2023/03/20 04:51:35;;;;;;;58.70;32.67;;;8.90;99.90;;;;;;5080947;28;20238;-66
2023/03/20 04:54:25;;;;;;;52.42;29.55;;;8.90;99.90;;;;;;5076341;28;20990;-67
2023/03/20 04:57:15;;;;;;;52.28;32.20;;;9.00;99.90;;;;;;5075938;28;20228;-68
2023/03/20 05:00:05;;;;;;;52.90;30.73;;;9.10;99.90;;;;;;5075992;28;20269;-66
2023/03/20 05:02:54;;;;;;;52.38;30.50;;;8.90;99.90;;;;;;5077269;28;20226;-66
2023/03/20 05:05:44;;;;;;;52.95;30.73;;;8.90;99.90;;;;;;5078821;28;20392;-64
2023/03/20 05:08:33;;;;;;;53.70;29.80;;;9.00;99.90;;;;;;5091241;27;20276;-68
2023/03/20 05:11:22;;;;;;;51.35;30.15;;;9.00;99.90;;;;;;5077330;28;20239;-66
2023/03/20 05:14:24;;;;;;;54.10;30.52;;;8.90;99.90;;;;;;5086302;28;20225;-68
2023/03/20 05:17:32;;;;;;;56.80;31.27;;;8.90;99.90;;;;;;5077514;28;20228;-69
2023/03/20 05:20:35;;;;;;;55.88;31.88;;;8.90;99.90;;;;;;5075251;28;20284;-68
2023/03/20 05:23:35;;;;;;;60.60;31.15;;;8.90;99.90;;;;;;5078361;28;20292;-65
2023/03/20 05:26:39;;;;;;;58.10;30.45;;;8.80;99.90;;;;;;5088230;28;20219;-66
2023/03/20 05:29:48;;;;;;;61.10;32.05;;;9.00;99.90;;;;;;5045151;28;20232;-65
2023/03/20 05:32:55;;;;;;;58.58;32.17;;;8.80;99.90;;;;;;5044897;28;20228;-66
2023/03/20 05:35:47;;;;;;;58.50;32.30;;;8.80;99.90;;;;;;5053430;28;20255;-67
2023/03/20 05:38:47;;;;;;;55.47;31.55;;;8.80;99.90;;;;;;5060685;28;20247;-66
2023/03/20 05:41:56;;;;;;;57.85;31.17;;;8.90;99.90;;;;;;5043881;28;20228;-67
2023/03/20 05:44:55;;;;;;;54.38;30.08;;;9.00;99.90;;;;;;5057960;28;20395;-66
2023/03/20 05:47:44;;;;;;;53.55;30.00;;;9.10;99.90;;;;;;5059827;28;20440;-66
2023/03/20 05:50:48;;;;;;;53.00;29.88;;;9.30;99.90;;;;;;5061002;28;20271;-65
2023/03/20 05:54:00;;;;;;;49.30;29.73;;;9.20;99.90;;;;;;5043883;28;20216;-66
2023/03/20 05:56:49;;;;;;;50.00;29.88;;;9.10;99.90;;;;;;5060125;28;20224;-67
2023/03/20 06:00:03;;;;;;;49.90;28.77;;;9.30;99.90;;;;;;5061205;28;20786;-67
2023/03/20 06:03:01;;;;;;;48.15;29.75;;;9.50;99.90;;;;;;5063458;28;20224;-65
2023/03/20 06:06:12;;;;;;;44.80;28.38;;;9.70;99.90;;;;;;5057252;28;20736;-66
2023/03/20 06:09:02;;;;;;;45.70;28.10;;;9.70;99.90;;;;;;5054576;28;20513;-68
2023/03/20 06:11:51;;;;;;;48.40;28.92;;;9.80;99.90;;;;;;5038584;28;20226;-66
2023/03/20 06:14:40;;;;;;;51.42;32.67;;;9.70;99.90;;;;;;5046198;28;20216;-67
2023/03/20 06:17:31;;;;;;;48.05;29.45;;;9.70;99.90;;;;;;5039837;28;20328;-66
2023/03/20 06:20:24;;;;;;;50.88;29.60;;;9.80;99.90;;;;;;5039945;28;20311;-66
2023/03/20 06:23:13;;;;;;;49.08;28.45;;;9.80;99.90;;;;;;5043649;28;20220;-67
2023/03/20 06:26:02;;;;;;;43.58;28.17;;;9.90;99.90;;;;;;5045442;28;20366;-66
2023/03/20 06:29:01;;;;;;;44.30;27.10;;;9.90;99.90;;;;;;5067516;28;20236;-68
2023/03/20 06:31:51;;;;;;;46.58;28.00;;;10.00;99.90;;;;;;5081208;28;20226;-70
2023/03/20 06:34:48;;;;;;;45.90;27.20;;;10.00;99.90;;;;;;5081092;27;20322;-67
2023/03/20 06:37:37;;;;;;;48.97;28.38;;;9.90;99.90;;;;;;5080658;28;20227;-68
2023/03/20 06:40:32;;;;;;;51.55;29.63;;;9.70;99.90;;;;;;5080156;28;20850;-69
2023/03/20 06:43:21;;;;;;;49.13;29.48;;;9.80;99.90;;;;;;5109401;27;20230;-69
2023/03/20 06:46:12;;;;;;;51.38;30.65;;;9.80;99.90;;;;;;5079598;28;20235;-71
2023/03/20 06:49:02;;;;;;;57.60;32.00;;;9.80;99.90;;;;;;5080510;28;20226;-69
2023/03/20 06:51:52;;;;;;;51.50;31.55;;;9.90;99.90;;;;;;5094864;27;20211;-73
2023/03/20 06:54:46;;;;;;;56.45;33.42;;;10.10;99.90;;;;;;5079206;28;20223;-66
2023/03/20 06:57:35;;;;;;;60.33;31.67;;;10.30;99.90;;;;;;5080258;28;20227;-68
2023/03/20 07:00:24;;;;;;;60.53;33.05;;;10.50;99.90;;;;;;5078461;28;20235;-68
2023/03/20 07:03:14;;;;;;;53.17;31.67;;;10.80;99.90;;;;;;5092727;27;20235;-69
2023/03/20 07:06:06;;;;;;;52.55;32.22;;;11.00;99.90;;;;;;5078391;28;20234;-69
2023/03/20 07:08:58;;;;;;;50.45;31.00;;;11.30;99.90;;;;;;5080099;28;20718;-69
2023/03/20 07:11:47;;;;;;;52.45;30.98;;;11.40;99.90;;;;;;5079309;28;20225;-68
2023/03/20 07:14:36;;;;;;;59.70;33.08;;;11.50;99.90;;;;;;5077882;28;20230;-69
2023/03/20 07:17:28;;;;;;;56.17;33.50;;;11.70;99.90;;;;;;5081367;28;20235;-69
2023/03/20 07:20:17;;;;;;;50.83;32.65;;;11.80;99.90;;;;;;5082768;28;20224;-69
2023/03/20 07:23:06;;;;;;;51.17;32.53;;;11.90;99.90;;;;;;5081493;28;20271;-69
2023/03/20 07:25:58;;;;;;;52.25;33.00;;;12.10;99.90;;;;;;5083242;28;20219;-68
2023/03/20 07:28:47;;;;;;;57.75;34.13;;;12.10;99.90;;;;;;5085653;28;20293;-68
2023/03/20 07:31:41;;;;;;;58.53;34.45;;;12.10;99.90;;;;;;5101328;28;20285;-67
2023/03/20 07:34:46;;;;;;;54.25;33.40;;;12.30;99.90;;;;;;5082300;28;20293;-70
2023/03/20 07:37:35;;;;;;;52.08;32.15;;;12.40;99.90;;;;;;5082843;28;20281;-70
2023/03/20 07:40:24;;;;;;;51.13;32.58;;;12.50;99.90;;;;;;5081288;28;20442;-70
2023/03/20 07:43:17;;;;;;;52.95;32.92;;;12.80;99.90;;;;;;5109469;27;20223;-66
2023/03/20 07:46:29;;;;;;;54.40;32.67;;;13.00;99.90;;;;;;5084064;28;20334;-70
2023/03/20 07:49:20;;;;;;;49.53;32.58;;;13.20;99.90;;;;;;5081902;28;20231;-67
2023/03/20 07:52:11;;;;;;;53.72;33.17;;;13.50;99.90;;;;;;5084543;28;20227;-66
2023/03/20 07:55:00;;;;;;;56.47;32.72;;;13.80;99.90;;;;;;5080897;28;20591;-66
2023/03/20 07:57:50;;;;;;;54.55;32.60;;;14.20;99.90;;;;;;5087340;28;20273;-66
2023/03/20 08:00:40;;;;;;;54.47;31.67;;;14.40;99.90;;;;;;5082513;28;20219;-68
2023/03/20 08:03:30;;;;;;;53.03;31.98;;;14.50;99.90;;;;;;5083973;28;20257;-68
2023/03/20 08:06:19;;;;;;;50.60;31.05;;;14.50;99.90;;;;;;5076638;28;20241;-68
2023/03/20 08:09:08;;;;;;;50.35;32.50;;;14.50;99.90;;;;;;5083305;28;20223;-66
2023/03/20 08:11:57;;;;;;;45.13;28.90;;;14.40;99.90;;;;;;5088226;28;20215;-65
2023/03/20 08:14:46;;;;;;;47.58;29.40;;;14.80;99.90;;;;;;5074773;28;20230;-69
2023/03/20 08:17:36;;;;;;;47.35;29.38;;;14.90;99.90;;;;;;5082370;28;20600;-67
2023/03/20 08:20:25;;;;;;;43.15;28.27;;;14.90;99.90;;;;;;5076297;28;20670;-69
2023/03/20 08:23:14;;;;;;;55.78;35.65;;;15.40;99.90;;;;;;5079970;28;20338;-70
2023/03/20 08:26:03;;;;;;;47.22;33.35;;;15.50;99.90;;;;;;5092616;28;20680;-71
2023/03/20 08:28:52;;;;;;;46.95;27.85;;;15.80;99.90;;;;;;5085053;27;20232;-68
2023/03/20 08:31:41;;;;;;;42.15;27.20;;;16.10;99.90;;;;;;5081311;28;20228;-69
2023/03/20 08:34:33;;;;;;;42.53;26.75;;;16.50;99.90;;;;;;5083108;28;20246;-71
2023/03/20 08:37:23;;;;;;;51.08;26.55;;;16.50;99.90;;;;;;5094249;28;20296;-70
2023/03/20 08:40:12;;;;;;;49.50;29.13;;;16.40;99.90;;;;;;5088939;28;20757;-69
2023/03/20 08:43:02;;;;;;;46.45;26.70;;;16.90;99.90;;;;;;5085035;27;20306;-69
2023/03/20 08:45:52;;;;;;;42.30;25.48;;;17.20;99.90;;;;;;5085056;28;20219;-69
2023/03/20 08:48:41;;;;;;;37.58;25.00;;;17.50;99.50;;;;;;5080191;28;20261;-69
2023/03/20 08:51:32;;;;;;;39.47;26.13;;;17.70;99.30;;;;;;5081796;27;20810;-69
2023/03/20 08:54:20;;;;;;;39.17;25.38;;;17.90;99.50;;;;;;5094565;28;20225;-69
2023/03/20 08:57:12;;;;;;;41.08;24.58;;;18.20;98.90;;;;;;5092319;27;20219;-68
2023/03/20 09:00:01;;;;;;;35.00;23.65;;;18.40;98.00;;;;;;5080691;28;20234;-67
2023/03/20 09:02:51;;;;;;;44.75;24.23;;;18.40;97.80;;;;;;5082583;27;20235;-69
2023/03/20 09:05:39;;;;;;;33.58;21.88;;;18.50;97.90;;;;;;5079558;28;20709;-67
2023/03/20 09:08:30;;;;;;;40.53;24.38;;;18.60;97.70;;;;;;5074101;28;20337;-70
2023/03/20 09:11:19;;;;;;;40.95;23.73;;;18.30;97.40;;;;;;5075104;28;20272;-69
2023/03/20 09:14:08;;;;;;;30.67;22.08;;;18.10;97.20;;;;;;5069014;28;20238;-69
2023/03/20 09:16:57;;;;;;;33.85;22.63;;;18.10;97.60;;;;;;5074908;28;20340;-68
2023/03/20 09:19:45;;;;;;;34.40;21.55;;;17.90;98.20;;;;;;5077974;28;20278;-68
2023/03/20 09:22:34;;;;;;;36.03;20.63;;;17.50;98.00;;;;;;5081046;28;20218;-70
2023/03/20 09:25:24;;;;;;;30.27;19.38;;;17.00;98.30;;;;;;5085949;28;20227;-68
2023/03/20 09:28:14;;;;;;;29.95;19.67;;;16.80;98.10;;;;;;5078197;28;20243;-69
2023/03/20 09:31:02;;;;;;;36.28;20.65;;;16.60;98.40;;;;;;5078783;28;20242;-69
2023/03/20 09:33:52;;;;;;;32.42;19.88;;;16.60;98.70;;;;;;5080680;28;20220;-69
2023/03/20 09:36:42;;;;;;;34.03;20.80;;;16.60;98.50;;;;;;5077795;28;20239;-70
2023/03/20 09:39:31;;;;;;;31.70;22.40;;;16.40;98.30;;;;;;5086618;28;20238;-71
2023/03/20 09:42:36;;;;;;;38.10;24.27;;;16.30;98.70;;;;;;5082013;28;20234;-69
2023/03/20 09:45:51;;;;;;;29.95;18.58;;;16.60;98.90;;;;;;5080387;28;20280;-70
2023/03/20 09:48:46;;;;;;;40.42;26.17;;;16.80;98.10;;;;;;5080948;28;20380;-69
2023/03/20 09:51:41;;;;;;;30.08;20.38;;;17.00;98.30;;;;;;5093382;28;20360;-69
2023/03/20 09:54:35;;;;;;;31.45;19.70;;;17.30;98.00;;;;;;5079567;28;20728;-70
2023/03/20 09:57:44;;;;;;;30.33;20.27;;;17.60;98.20;;;;;;5074098;28;20311;-69
2023/03/20 10:00:35;;;;;;;32.92;20.98;;;17.60;98.00;;;;;;5079811;28;20235;-70
2023/03/20 10:03:29;;;;;;;32.50;21.33;;;17.60;98.20;;;;;;5094111;28;20223;-70
2023/03/20 10:06:18;;;;;;;30.88;19.25;;;17.80;98.00;;;;;;5093317;28;20223;-70
2023/03/20 10:09:15;;;;;;;32.42;20.65;;;17.80;97.60;;;;;;5079948;28;20792;-69
2023/03/20 10:12:17;;;;;;;31.70;19.45;;;17.70;98.10;;;;;;5075791;28;20788;-70
2023/03/20 10:15:15;;;;;;;28.10;18.85;;;17.60;97.50;;;;;;5084648;28;20954;-69
2023/03/20 10:18:14;;;;;;;31.95;19.80;;;17.50;97.80;;;;;;5080801;28;20319;-69
2023/03/20 10:21:08;;;;;;;27.73;19.25;;;17.30;97.90;;;;;;5090716;28;20234;-69
2023/03/20 10:24:01;;;;;;;32.40;19.38;;;17.20;98.30;;;;;;5088132;27;20271;-69
2023/03/20 10:26:54;;;;;;;38.53;21.25;;;16.90;98.30;;;;;;5077299;28;20219;-69
2023/03/20 10:29:52;;;;;;;31.80;20.73;;;16.80;98.80;;;;;;5079195;28;20330;-70
2023/03/20 10:32:50;;;;;;;31.33;18.83;;;16.90;99.20;;;;;;5078620;28;20219;-69
2023/03/20 10:35:45;;;;;;;28.63;20.02;;;16.90;98.60;;;;;;5080224;28;20602;-69
2023/03/20 10:38:42;;;;;;;33.92;21.85;;;16.90;98.90;;;;;;5080847;28;20980;-70
2023/03/20 10:41:36;;;;;;;34.97;20.70;;;16.70;98.90;;;;;;5080176;28;20227;-70
2023/03/20 10:44:33;;;;;;;35.53;22.45;;;16.70;99.50;;;;;;5067478;28;20239;-70
2023/03/20 10:47:26;;;;;;;38.15;24.15;;;16.90;99.30;;;;;;5075246;28;20227;-69
2023/03/20 10:50:18;;;;;;;38.42;22.92;;;16.70;99.50;;;;;;5079831;28;20224;-69
2023/03/20 10:53:10;;;;;;;41.72;24.13;;;16.90;99.50;;;;;;5080935;28;20227;-70
2023/03/20 10:56:03;;;;;;;43.25;29.58;;;16.80;99.60;;;;;;5075824;28;21221;-68
2023/03/20 10:58:57;;;;;;;38.78;23.73;;;16.90;99.60;;;;;;5073776;28;20314;-67
2023/03/20 11:01:46;;;;;;;38.05;25.65;;;17.00;99.50;;;;;;5088579;28;20234;-71
2023/03/20 11:04:38;;;;;;;43.05;27.42;;;17.00;99.90;;;;;;5077280;28;20274;-69
2023/03/20 11:07:33;;;;;;;43.78;27.42;;;17.00;99.90;;;;;;5073534;28;20301;-69
2023/03/20 11:10:30;;;;;;;40.30;25.25;;;16.90;99.90;;;;;;5096071;28;20237;-72
2023/03/20 11:13:28;;;;;;;43.13;28.25;;;17.20;99.90;;;;;;5072613;28;20301;-72
2023/03/20 11:16:21;;;;;;;45.40;27.38;;;17.50;99.90;;;;;;5096088;27;20235;-72
2023/03/20 11:19:13;;;;;;;41.42;27.55;;;17.60;99.90;;;;;;5081811;28;20668;-69
2023/03/20 11:22:10;;;;;;;52.58;34.42;;;17.70;99.90;;;;;;5083764;28;20227;-69
2023/03/20 11:25:02;;;;;;;45.25;30.92;;;17.80;99.90;;;;;;5095519;27;20957;-67
2023/03/20 11:27:50;;;;;;;48.85;28.42;;;17.70;99.90;;;;;;5089465;28;20239;-67
2023/03/20 11:30:40;;;;;;;50.38;32.47;;;17.70;99.90;;;;;;5075353;28;20230;-67
2023/03/20 11:33:53;;;;;;;48.28;33.53;;;17.40;99.90;;;;;;5092538;27;20734;-68
2023/03/20 11:36:52;;;;;;;45.67;32.15;;;17.20;99.90;;;;;;5085464;28;20219;-70
2023/03/20 11:40:00;;;;;;;44.33;31.30;;;17.00;99.90;;;;;;5081316;28;20227;-69
2023/03/20 11:42:53;;;;;;;44.90;30.80;;;16.80;99.90;;;;;;5109479;27;20219;-67
2023/03/20 11:45:44;;;;;;;42.63;26.90;;;16.90;99.90;;;;;;5081408;28;20227;-68
2023/03/20 11:48:38;;;;;;;40.83;27.73;;;16.90;99.90;;;;;;5079122;28;20215;-69
2023/03/20 11:51:27;;;;;;;44.22;29.67;;;16.80;99.90;;;;;;5074840;28;20244;-68
2023/03/20 11:54:18;;;;;;;40.28;26.27;;;16.90;99.90;;;;;;5076965;27;20291;-70
2023/03/20 11:57:31;;;;;;;37.58;23.98;;;17.00;99.90;;;;;;5097758;27;20302;-69
2023/03/20 12:00:23;;;;;;;35.25;24.00;;;16.90;99.90;;;;;;5077031;28;20698;-67
2023/03/20 12:03:36;;;;;;;41.65;25.40;;;16.80;99.90;;;;;;5075977;28;20233;-69
2023/03/20 12:06:27;;;;;;;39.53;25.95;;;16.80;99.90;;;;;;5088067;28;20219;-68
2023/03/20 12:09:37;;;;;;;38.53;25.17;;;16.80;99.90;;;;;;5081619;28;20227;-68
2023/03/20 12:12:39;;;;;;;37.08;25.88;;;16.80;99.90;;;;;;5081569;28;20226;-70
2023/03/20 12:15:33;;;;;;;41.53;28.63;;;16.50;99.90;;;;;;5082120;27;20219;-69
2023/03/20 12:18:28;;;;;;;39.15;26.30;;;16.40;99.90;;;;;;5079201;28;20224;-70
2023/03/20 12:21:23;;;;;;;38.20;26.80;;;16.60;99.90;;;;;;5080812;28;20242;-68
2023/03/20 12:24:17;;;;;;;42.33;27.58;;;16.50;99.90;;;;;;5095873;27;20235;-68
2023/03/20 12:27:17;;;;;;;43.13;27.42;;;16.80;99.90;;;;;;5091763;27;20215;-68
2023/03/20 12:30:16;;;;;;;39.13;26.77;;;17.00;99.90;;;;;;5086319;28;20315;-67
2023/03/20 12:33:11;;;;;;;36.20;25.45;;;16.90;99.90;;;;;;5094068;28;20224;-66
2023/03/20 12:36:02;;;;;;;40.15;25.63;;;16.50;99.90;;;;;;5084249;28;20223;-68
2023/03/20 12:38:55;;;;;;;42.28;26.88;;;16.40;99.90;;;;;;5091284;28;20216;-66
2023/03/20 12:41:58;;;;;;;39.08;27.85;;;16.70;99.90;;;;;;5090747;28;20219;-67
2023/03/20 12:44:50;;;;;;;46.45;27.80;;;16.80;99.90;;;;;;5089208;28;20371;-66
2023/03/20 12:48:05;;;;;;;39.50;27.10;;;16.90;99.90;;;;;;5084515;28;20216;-67
2023/03/20 12:50:59;;;;;;;34.60;25.42;;;16.90;99.90;;;;;;5079884;28;20228;-68
2023/03/20 12:54:02;;;;;;;39.65;26.60;;;16.80;99.90;;;;;;5081408;28;20389;-69
2023/03/20 12:57:02;;;;;;;40.92;27.52;;;16.40;99.90;;;;;;5081926;28;20689;-70
2023/03/20 13:00:05;;;;;;;44.85;27.08;;;16.30;99.90;;;;;;5084720;28;20339;-73
2023/03/20 13:03:06;;;;;;;38.63;27.35;;;16.10;99.90;;;;;;5079258;28;20223;-66
2023/03/20 13:06:03;;;;;;;39.05;26.20;;;16.20;99.90;;;;;;5077034;28;20762;-68
2023/03/20 13:09:19;;;;;;;37.88;25.73;;;16.20;99.90;;;;;;5079452;27;20226;-68
2023/03/20 13:12:15;;;;;;;37.30;26.00;;;16.30;99.90;;;;;;5076811;28;20232;-69
2023/03/20 13:15:19;;;;;;;49.58;29.80;;;16.40;99.90;;;;;;5083060;28;20303;-70
2023/03/20 13:18:17;;;;;;;49.72;26.23;;;16.50;99.90;;;;;;5079380;28;20223;-70
2023/03/20 13:21:10;;;;;;;32.53;22.98;;;16.60;99.90;;;;;;5076602;28;20235;-69
2023/03/20 13:24:09;;;;;;;30.10;22.60;;;16.60;99.90;;;;;;5078117;28;20334;-69
2023/03/20 13:27:11;;;;;;;31.48;22.25;;;16.60;99.90;;;;;;5079132;28;20226;-69
2023/03/20 13:30:07;;;;;;;36.33;26.65;;;16.60;99.90;;;;;;5092289;28;20292;-68
2023/03/20 13:33:14;;;;;;;30.63;22.85;;;16.50;99.90;;;;;;5074433;28;20239;-70
2023/03/20 13:36:13;;;;;;;32.90;22.40;;;16.70;99.90;;;;;;5078341;28;20230;-68
2023/03/20 13:39:11;;;;;;;29.77;22.08;;;16.60;99.90;;;;;;5083030;28;20219;-71
2023/03/20 13:42:02;;;;;;;35.70;24.67;;;16.40;99.90;;;;;;5082276;28;20230;-69
2023/03/20 13:44:54;;;;;;;42.00;27.42;;;16.30;99.90;;;;;;5078603;28;20780;-69
2023/03/20 13:47:45;;;;;;;38.58;26.85;;;15.90;99.90;;;;;;5075407;28;20227;-70
2023/03/20 13:50:44;;;;;;;42.60;29.08;;;15.80;99.90;;;;;;5079362;28;20676;-69
2023/03/20 13:53:44;;;;;;;40.55;28.98;;;15.60;99.90;;;;;;5079905;28;20953;-68
2023/03/20 13:56:40;;;;;;;41.50;30.10;;;15.60;99.90;;;;;;5079404;28;20683;-69
2023/03/20 13:59:45;;;;;;;42.58;30.45;;;15.70;99.90;;;;;;5081475;28;20231;-66
2023/03/20 14:02:45;;;;;;;43.35;30.05;;;15.60;99.90;;;;;;5079551;28;20230;-68
2023/03/20 14:05:38;;;;;;;41.72;30.02;;;15.70;99.90;;;;;;5078794;28;20219;-68
2023/03/20 14:08:35;;;;;;;45.35;30.55;;;15.80;99.90;;;;;;5090032;28;20216;-67
2023/03/20 14:11:38;;;;;;;39.67;29.88;;;15.60;99.90;;;;;;5082472;28;20242;-71
2023/03/20 14:14:29;;;;;;;46.47;30.48;;;15.50;99.90;;;;;;5077519;28;20242;-68
2023/03/20 14:17:21;;;;;;;40.00;28.35;;;15.60;99.90;;;;;;5074084;28;20223;-66
2023/03/20 14:20:22;;;;;;;37.72;26.20;;;15.50;99.90;;;;;;5079449;28;20223;-70
2023/03/20 14:23:19;;;;;;;37.20;26.10;;;15.40;99.90;;;;;;5075918;28;20314;-70
2023/03/20 14:26:19;;;;;;;33.97;25.85;;;15.50;99.90;;;;;;5082215;28;20238;-71
2023/03/20 14:29:32;;;;;;;35.22;25.30;;;15.40;99.90;;;;;;5078695;28;20231;-68
2023/03/20 14:32:51;;;;;;;33.95;25.27;;;15.40;99.90;;;;;;5079080;28;20207;-69
2023/03/20 14:35:44;;;;;;;43.83;31.42;;;15.30;99.90;;;;;;5068102;28;20274;-68
2023/03/20 14:38:39;;;;;;;36.90;24.33;;;15.30;99.90;;;;;;5077583;28;20227;-68
2023/03/20 14:41:35;;;;;;;32.65;23.45;;;15.40;99.90;;;;;;5077492;28;20283;-68
2023/03/20 14:44:38;;;;;;;33.97;25.33;;;15.50;99.90;;;;;;5085233;28;20215;-69
2023/03/20 14:47:39;;;;;;;33.40;22.92;;;15.40;99.90;;;;;;5082653;28;20233;-69
2023/03/20 14:50:32;;;;;;;27.90;21.92;;;15.40;99.90;;;;;;5078967;28;20256;-69
2023/03/20 14:53:23;;;;;;;31.55;22.88;;;15.60;99.90;;;;;;5083053;28;20233;-70